Time;durP1;ratioP1;P1;durP2;ratioP2;P2;SDS_P1;SDS_P2;PMS_P1;PMS_P2;Temp;Humidity;BMP_temperature;BMP_pressure;BME280_temperature;BME280_humidity;BME280_pressure;Samples;Min_cycle;Max_cycle;Signal;HPM_P1;HPM_P2
2022/06/15 00:00:07;;;;;;;;;;;24.50;74.40;24.50;99428.00;;;;337182;28;92186;-87
2022/06/15 00:00:19;;;;;;;;;;;24.50;75.00;24.50;99426.00;;;;337584;28;83387;-87
2022/06/15 00:00:31;;;;;;;;;;;24.50;74.80;24.60;99426.00;;;;339701;28;90654;-86
2022/06/15 00:00:44;;;;;;;;;;;24.50;75.50;24.50;99420.00;;;;342582;28;83283;-87
2022/06/15 00:01:02;;;;;;;;;;;24.50;75.90;24.60;99426.00;;;;338415;28;92688;-87
2022/06/15 00:01:16;;;;;;;;;;;24.50;75.40;24.50;99432.00;;;;347343;28;83189;-87
2022/06/15 00:01:28;;;;;;;;;;;24.50;75.80;24.40;99424.00;;;;344072;28;88737;-86
2022/06/15 00:01:40;;;;;;;;;;;24.50;75.90;24.30;99433.00;;;;337728;28;83300;-87
2022/06/15 00:01:51;;;;;;;;;;;24.50;76.00;24.20;99430.00;;;;337130;28;93217;-86
2022/06/15 00:02:03;;;;;;;;;;;24.50;75.90;24.30;99431.00;;;;337644;28;82608;-86
2022/06/15 00:02:15;;;;;;;;;;;24.50;75.80;24.40;99426.00;;;;337167;28;92392;-87
2022/06/15 00:02:27;;;;;;;;;;;24.50;75.40;24.40;99431.00;;;;340388;28;82503;-87
2022/06/15 00:02:39;;;;;;;;;;;24.50;75.50;24.50;99428.00;;;;338513;28;91638;-86
2022/06/15 00:02:51;;;;;;;;;;;24.50;75.50;24.40;99440.00;;;;340244;28;83547;-86
2022/06/15 00:03:03;;;;;;;;;;;24.50;76.10;24.20;99427.00;;;;338577;28;91784;-86
2022/06/15 00:03:15;;;;;;;;;;;24.40;75.80;24.30;99432.00;;;;337626;28;83496;-87
2022/06/15 00:03:28;;;;;;;;;;;24.50;76.00;24.30;99432.00;;;;339288;28;92002;-86
2022/06/15 00:03:40;;;;;;;;;;;24.50;76.20;24.30;99435.00;;;;338675;28;83584;-87
2022/06/15 00:03:52;;;;;;;;;;;24.40;76.30;24.30;99435.00;;;;339874;28;89250;-86
2022/06/15 00:04:04;;;;;;;;;;;24.40;76.10;24.40;99426.00;;;;337465;28;83553;-87
2022/06/15 00:04:16;;;;;;;;;;;24.40;75.90;24.30;99426.00;;;;338425;28;89055;-87
2022/06/15 00:04:29;;;;;;;;;;;24.40;75.70;24.30;99430.00;;;;340166;28;83449;-87
2022/06/15 00:04:41;;;;;;;;;;;24.40;75.80;24.20;99428.00;;;;338283;28;91561;-87
2022/06/15 00:04:53;;;;;;;;;;;24.40;75.80;24.20;99430.00;;;;340361;28;82469;-87
2022/06/15 00:05:05;;;;;;;;;;;24.40;76.00;24.30;99435.00;;;;339944;28;89589;-87
2022/06/15 00:05:17;;;;;;;;;;;24.40;75.50;24.30;99433.00;;;;343091;28;83292;-87
2022/06/15 00:05:29;;;;;;;;;;;24.40;75.60;24.30;99432.00;;;;339806;28;89692;-86
2022/06/15 00:05:43;;;;;;;;;;;24.40;75.30;24.30;99434.00;;;;341678;28;83311;-87
2022/06/15 00:06:37;;;;;;;;;;;24.40;75.20;24.40;99435.00;;;;339687;28;91352;-87
2022/06/15 00:06:49;;;;;;;;;;;24.40;76.30;24.30;99436.00;;;;341543;28;82546;-86
2022/06/15 00:07:01;;;;;;;;;;;24.40;76.60;24.30;99440.00;;;;339293;28;91386;-86
2022/06/15 00:07:12;;;;;;;;;;;24.30;76.40;24.40;99436.00;;;;347387;28;83322;-87
2022/06/15 00:07:24;;;;;;;;;;;24.40;75.70;24.50;99432.00;;;;338486;28;90380;-87
2022/06/15 00:07:36;;;;;;;;;;;24.30;75.70;24.50;99439.00;;;;345690;28;83563;-86
2022/06/15 00:07:47;;;;;;;;;;;24.30;75.70;24.30;99438.00;;;;341236;28;91757;-87
2022/06/15 00:07:59;;;;;;;;;;;24.30;76.30;24.30;99438.00;;;;340164;28;82773;-87
2022/06/15 00:08:11;;;;;;;;;;;24.30;76.20;24.30;99435.00;;;;338478;28;91736;-87
2022/06/15 00:08:23;;;;;;;;;;;24.40;76.30;24.30;99440.00;;;;338903;28;83186;-86
2022/06/15 00:08:34;;;;;;;;;;;24.30;76.40;24.40;99429.00;;;;339768;28;92205;-87
2022/06/15 00:08:47;;;;;;;;;;;24.30;75.90;24.50;99430.00;;;;338881;28;82571;-86
2022/06/15 00:08:59;;;;;;;;;;;24.30;75.80;24.50;99432.00;;;;341286;28;88898;-86
2022/06/15 00:09:11;;;;;;;;;;;24.30;75.80;24.30;99434.00;;;;341604;28;83147;-86
2022/06/15 00:09:23;;;;;;;;;;;24.30;76.00;24.20;99439.00;;;;339523;28;90649;-87
2022/06/15 00:09:35;;;;;;;;;;;24.30;76.20;24.20;99441.00;;;;340051;28;83356;-87
2022/06/15 00:09:46;;;;;;;;;;;24.40;76.60;24.30;99430.00;;;;345512;28;92034;-86
2022/06/15 00:09:58;;;;;;;;;;;24.30;75.90;24.40;99437.00;;;;345933;27;83188;-86
2022/06/15 00:10:10;;;;;;;;;;;24.30;75.60;24.30;99434.00;;;;337242;28;89061;-87
2022/06/15 00:10:22;;;;;;;;;;;24.30;76.40;24.20;99438.00;;;;338969;28;82596;-86
2022/06/15 00:10:33;;;;;;;;;;;24.30;76.40;24.20;99431.00;;;;338305;28;93787;-86
2022/06/15 00:10:45;;;;;;;;;;;24.30;76.40;24.20;99444.00;;;;339042;28;83312;-86
2022/06/15 00:10:57;;;;;;;;;;;24.30;76.40;24.20;99444.00;;;;338573;28;89643;-86
2022/06/15 00:11:15;;;;;;;;;;;24.30;76.70;24.20;99441.00;;;;337757;28;83465;-86
2022/06/15 00:11:32;;;;;;;;;;;24.30;76.80;24.30;99445.00;;;;338417;28;88672;-87
2022/06/15 00:11:43;;;;;;;;;;;24.30;76.10;24.30;99442.00;;;;338907;28;83333;-86
2022/06/15 00:11:55;;;;;;;;;;;24.30;76.10;24.20;99447.00;;;;338774;28;90513;-87
2022/06/15 00:12:08;;;;;;;;;;;24.30;76.60;24.20;99451.00;;;;340347;28;83542;-87
2022/06/15 00:12:20;;;;;;;;;;;24.20;76.50;24.20;99444.00;;;;341397;28;91096;-86
2022/06/15 00:12:32;;;;;;;;;;;24.30;76.50;24.30;99437.00;;;;342250;28;82439;-87
2022/06/15 00:12:43;;;;;;;;;;;24.20;76.30;24.40;99442.00;;;;342725;28;92919;-87
2022/06/15 00:12:55;;;;;;;;;;;24.20;75.90;24.30;99447.00;;;;340029;28;83321;-87
2022/06/15 00:13:07;;;;;;;;;;;24.20;76.40;24.30;99444.00;;;;338803;28;88977;-87
2022/06/15 00:13:19;;;;;;;;;;;24.30;76.20;24.30;99449.00;;;;339238;28;83389;-87
2022/06/15 00:13:31;;;;;;;;;;;24.30;76.00;24.20;99451.00;;;;338694;28;88874;-86
2022/06/15 00:13:43;;;;;;;;;;;24.20;76.40;24.20;99447.00;;;;340498;28;83321;-87
2022/06/15 00:13:56;;;;;;;;;;;24.30;76.30;24.20;99445.00;;;;341395;28;91744;-87
2022/06/15 00:14:13;;;;;;;;;;;24.20;76.80;24.10;99443.00;;;;337830;28;83202;-87
2022/06/15 00:14:26;;;;;;;;;;;24.20;76.90;24.20;99453.00;;;;337439;28;88899;-87
2022/06/15 00:14:39;;;;;;;;;;;24.20;76.40;24.10;99447.00;;;;339242;28;83288;-87
2022/06/15 00:14:50;;;;;;;;;;;24.20;76.50;24.20;99444.00;;;;339944;28;93385;-86
2022/06/15 00:15:02;;;;;;;;;;;24.20;76.40;24.20;99450.00;;;;340390;28;83425;-87
2022/06/15 00:15:15;;;;;;;;;;;24.20;76.90;24.20;99446.00;;;;339965;28;92293;-87
2022/06/15 00:15:27;;;;;;;;;;;24.20;76.40;24.20;99447.00;;;;338333;28;83327;-87
2022/06/15 00:15:39;;;;;;;;;;;24.20;76.30;24.10;99446.00;;;;338826;28;88112;-87
2022/06/15 00:15:51;;;;;;;;;;;24.20;76.50;24.30;99447.00;;;;339153;28;83325;-86
2022/06/15 00:16:03;;;;;;;;;;;24.20;76.50;24.30;99447.00;;;;337245;28;91858;-87
2022/06/15 00:16:16;;;;;;;;;;;24.20;76.40;24.20;99443.00;;;;337888;28;83414;-86
2022/06/15 00:16:27;;;;;;;;;;;24.20;77.00;24.20;99451.00;;;;338526;28;90727;-87
2022/06/15 00:16:40;;;;;;;;;;;24.20;76.70;24.30;99450.00;;;;339216;28;83452;-87
2022/06/15 00:16:52;;;;;;;;;;;24.20;76.30;24.30;99449.00;;;;337339;28;91636;-86
2022/06/15 00:17:03;;;;;;;;;;;24.20;76.50;24.40;99446.00;;;;336542;28;83285;-86
2022/06/15 00:17:15;;;;;;;;;;;24.20;76.50;24.30;99451.00;;;;339767;28;91067;-87
2022/06/15 00:17:27;;;;;;;;;;;24.20;76.80;24.30;99444.00;;;;340330;28;83424;-86
2022/06/15 00:17:39;;;;;;;;;;;24.20;76.60;24.30;99453.00;;;;345838;28;87878;-87
2022/06/15 00:17:51;;;;;;;;;;;24.20;76.50;24.30;99455.00;;;;344873;28;82397;-86
2022/06/15 00:18:03;;;;;;;;;;;24.20;76.20;24.30;99455.00;;;;337363;28;92041;-87
2022/06/15 00:18:15;;;;;;;;;;;24.20;76.30;24.30;99450.00;;;;340558;28;83414;-87
2022/06/15 00:18:28;;;;;;;;;;;24.20;76.50;24.30;99449.00;;;;342464;27;91701;-86
2022/06/15 00:18:40;;;;;;;;;;;24.20;76.30;24.40;99449.00;;;;344519;28;83211;-87
2022/06/15 00:18:52;;;;;;;;;;;24.20;76.50;24.40;99450.00;;;;339989;28;92728;-87
2022/06/15 00:19:04;;;;;;;;;;;24.20;76.40;24.30;99452.00;;;;339155;28;83396;-87
2022/06/15 00:19:16;;;;;;;;;;;24.20;76.50;24.20;99454.00;;;;340126;28;89159;-87
2022/06/15 00:19:28;;;;;;;;;;;24.20;77.00;24.30;99451.00;;;;338976;28;82378;-87
2022/06/15 00:19:40;;;;;;;;;;;24.20;76.60;24.30;99445.00;;;;337209;28;87683;-87
2022/06/15 00:19:51;;;;;;;;;;;24.20;76.50;24.30;99454.00;;;;340599;28;82333;-86
2022/06/15 00:20:03;;;;;;;;;;;24.20;76.50;24.20;99454.00;;;;338683;28;91765;-86
2022/06/15 00:20:15;;;;;;;;;;;24.20;76.80;24.20;99454.00;;;;346158;28;83457;-87
2022/06/15 00:20:27;;;;;;;;;;;24.20;76.60;24.10;99449.00;;;;343000;28;89170;-87
2022/06/15 00:20:39;;;;;;;;;;;24.20;76.60;24.10;99448.00;;;;337861;28;83402;-86
2022/06/15 00:20:51;;;;;;;;;;;24.20;76.40;24.10;99454.00;;;;338695;28;89774;-87
2022/06/15 00:21:03;;;;;;;;;;;24.20;76.50;24.20;99450.00;;;;337911;28;83308;-86
2022/06/15 00:21:16;;;;;;;;;;;24.20;76.60;24.20;99453.00;;;;338791;28;89102;-86
2022/06/15 00:21:27;;;;;;;;;;;24.20;76.50;24.30;99448.00;;;;338915;28;82322;-87
2022/06/15 00:21:39;;;;;;;;;;;24.20;76.50;24.30;99454.00;;;;345519;28;88728;-87
2022/06/15 00:21:51;;;;;;;;;;;24.20;76.50;24.20;99455.00;;;;337841;28;82331;-87
2022/06/15 00:22:03;;;;;;;;;;;24.20;77.80;24.10;99449.00;;;;337041;28;91812;-87
2022/06/15 00:22:15;;;;;;;;;;;24.20;77.30;24.10;99457.00;;;;336624;28;83357;-87
2022/06/15 00:22:27;;;;;;;;;;;24.10;76.90;24.10;99455.00;;;;338685;28;90939;-87
2022/06/15 00:22:40;;;;;;;;;;;24.10;76.40;24.10;99452.00;;;;339063;28;83515;-87
2022/06/15 00:22:52;;;;;;;;;;;24.10;76.60;24.10;99453.00;;;;339974;28;93410;-87
2022/06/15 00:23:04;;;;;;;;;;;24.10;76.80;24.10;99454.00;;;;337866;28;83424;-86
2022/06/15 00:23:16;;;;;;;;;;;24.10;76.70;24.10;99452.00;;;;338791;28;92288;-87
2022/06/15 00:23:28;;;;;;;;;;;24.10;76.90;24.00;99454.00;;;;338874;28;83526;-86
2022/06/15 00:23:40;;;;;;;;;;;24.10;77.30;24.00;99450.00;;;;339924;28;91505;-87
2022/06/15 00:23:51;;;;;;;;;;;24.10;77.10;24.00;99452.00;;;;339210;28;83380;-86
2022/06/15 00:24:04;;;;;;;;;;;24.10;76.90;24.10;99462.00;;;;337409;28;91847;-86
2022/06/15 00:24:15;;;;;;;;;;;24.10;76.80;24.10;99455.00;;;;339209;28;83357;-87
2022/06/15 00:24:27;;;;;;;;;;;24.10;76.50;24.10;99456.00;;;;339733;28;91636;-87
2022/06/15 00:24:39;;;;;;;;;;;24.10;76.40;24.10;99449.00;;;;343138;28;83565;-87
2022/06/15 00:24:51;;;;;;;;;;;24.10;76.70;24.00;99456.00;;;;341398;27;93275;-87
2022/06/15 00:25:03;;;;;;;;;;;24.10;76.90;24.00;99457.00;;;;345823;28;83474;-87
2022/06/15 00:25:14;;;;;;;;;;;24.00;77.10;24.00;99452.00;;;;344343;28;92130;-87
2022/06/15 00:25:26;;;;;;;;;;;24.10;77.00;24.00;99459.00;;;;346038;28;82655;-87
2022/06/15 00:25:38;;;;;;;;;;;24.10;76.60;24.00;99451.00;;;;347032;28;92749;-87
2022/06/15 00:25:50;;;;;;;;;;;24.10;76.90;24.00;99462.00;;;;347535;28;83364;-87
2022/06/15 00:26:02;;;;;;;;;;;24.00;77.40;24.00;99457.00;;;;347195;28;88711;-87
2022/06/15 00:26:14;;;;;;;;;;;24.00;77.40;24.00;99461.00;;;;347538;28;83537;-87
2022/06/15 00:26:26;;;;;;;;;;;24.00;76.80;24.00;99461.00;;;;347198;28;88779;-87
2022/06/15 00:26:38;;;;;;;;;;;24.00;76.40;24.00;99449.00;;;;345961;28;83216;-87
2022/06/15 00:26:50;;;;;;;;;;;24.00;76.40;24.00;99457.00;;;;345637;28;93091;-87
2022/06/15 00:27:03;;;;;;;;;;;24.00;76.40;24.00;99459.00;;;;348722;27;82328;-87
2022/06/15 00:27:15;;;;;;;;;;;24.00;76.70;24.00;99456.00;;;;345647;28;91736;-87
2022/06/15 00:27:27;;;;;;;;;;;24.00;76.40;24.00;99459.00;;;;344810;28;83377;-87
2022/06/15 00:27:38;;;;;;;;;;;24.00;76.90;23.90;99457.00;;;;349782;27;89457;-87
2022/06/15 00:27:50;;;;;;;;;;;24.00;77.00;23.90;99463.00;;;;347502;28;83480;-87
2022/06/15 00:28:02;;;;;;;;;;;24.00;76.90;24.00;99454.00;;;;346950;28;92133;-87
2022/06/15 00:28:14;;;;;;;;;;;24.00;76.70;24.10;99455.00;;;;347503;28;83477;-87
2022/06/15 00:28:26;;;;;;;;;;;24.00;76.50;24.10;99454.00;;;;347064;28;92175;-86
2022/06/15 00:28:38;;;;;;;;;;;24.00;76.50;24.10;99458.00;;;;347441;28;82369;-87
2022/06/15 00:28:51;;;;;;;;;;;24.00;76.70;24.00;99453.00;;;;346959;28;92190;-87
2022/06/15 00:29:03;;;;;;;;;;;24.00;76.80;24.00;99454.00;;;;347553;28;82351;-87
2022/06/15 00:29:14;;;;;;;;;;;24.00;77.80;23.90;99452.00;;;;347033;28;92392;-87
2022/06/15 00:29:26;;;;;;;;;;;24.00;78.00;23.90;99447.00;;;;347432;28;83705;-86
2022/06/15 00:29:38;;;;;;;;;;;24.00;77.80;23.90;99454.00;;;;345787;28;88211;-87
2022/06/15 00:29:50;;;;;;;;;;;24.00;77.80;23.90;99450.00;;;;346056;28;83481;-86
2022/06/15 00:30:05;;;;;;;;;;;23.90;77.80;24.00;99454.00;;;;344322;28;92023;-87
2022/06/15 00:30:19;;;;;;;;;;;23.90;77.50;24.00;99451.00;;;;343064;28;83304;-87
2022/06/15 00:30:30;;;;;;;;;;;23.90;77.00;24.00;99454.00;;;;344850;28;92026;-87
2022/06/15 00:30:44;;;;;;;;;;;23.90;76.80;24.00;99451.00;;;;346040;28;83275;-87
2022/06/15 00:30:56;;;;;;;;;;;23.90;77.60;24.00;99456.00;;;;346998;28;89988;-87
2022/06/15 00:31:11;;;;;;;;;;;23.90;77.70;23.90;99449.00;;;;344763;28;82487;-87
2022/06/15 00:31:22;;;;;;;;;;;23.90;77.70;24.00;99451.00;;;;345642;28;91265;-86
2022/06/15 00:31:34;;;;;;;;;;;23.90;77.10;24.00;99449.00;;;;348412;27;82685;-86
2022/06/15 00:31:46;;;;;;;;;;;23.90;77.00;23.90;99459.00;;;;345660;28;92156;-86
2022/06/15 00:31:58;;;;;;;;;;;23.90;77.30;24.00;99454.00;;;;346175;28;83322;-86
2022/06/15 00:32:10;;;;;;;;;;;23.90;76.80;24.00;99448.00;;;;345740;28;89154;-87
2022/06/15 00:32:21;;;;;;;;;;;23.90;76.90;24.10;99442.00;;;;346189;28;83283;-87
2022/06/15 00:32:33;;;;;;;;;;;23.90;77.00;24.00;99446.00;;;;345690;28;91484;-87
2022/06/15 00:32:45;;;;;;;;;;;23.90;77.90;24.00;99445.00;;;;347416;28;83230;-87
2022/06/15 00:32:57;;;;;;;;;;;23.90;77.40;24.00;99448.00;;;;348420;27;91446;-87
2022/06/15 00:33:08;;;;;;;;;;;23.90;76.90;24.00;99447.00;;;;348892;27;83339;-87
2022/06/15 00:33:21;;;;;;;;;;;23.90;76.70;24.00;99448.00;;;;348070;27;91485;-86
2022/06/15 00:33:33;;;;;;;;;;;23.90;76.50;24.00;99443.00;;;;347049;28;82666;-87
2022/06/15 00:33:45;;;;;;;;;;;23.90;77.60;24.00;99441.00;;;;345594;28;89514;-87
2022/06/15 00:33:56;;;;;;;;;;;23.90;76.90;24.00;99439.00;;;;347725;27;83275;-87
2022/06/15 00:34:08;;;;;;;;;;;23.90;77.00;24.00;99447.00;;;;348485;27;91885;-86
2022/06/15 00:34:20;;;;;;;;;;;23.90;76.90;24.00;99440.00;;;;347604;28;82490;-86
2022/06/15 00:34:32;;;;;;;;;;;23.90;76.50;24.00;99435.00;;;;347141;28;88313;-86
2022/06/15 00:34:43;;;;;;;;;;;23.90;76.40;23.90;99446.00;;;;347529;28;83358;-87
2022/06/15 00:34:55;;;;;;;;;;;23.90;77.00;23.90;99447.00;;;;348533;27;89496;-87
2022/06/15 00:35:07;;;;;;;;;;;23.90;76.80;24.00;99441.00;;;;350441;27;83284;-87
2022/06/15 00:35:19;;;;;;;;;;;23.90;76.80;24.00;99442.00;;;;347045;28;89004;-87
2022/06/15 00:35:31;;;;;;;;;;;23.90;76.80;24.10;99440.00;;;;346109;28;83518;-87
2022/06/15 00:35:44;;;;;;;;;;;23.90;76.70;24.10;99443.00;;;;347176;28;88722;-86
2022/06/15 00:35:58;;;;;;;;;;;23.90;76.90;24.00;99441.00;;;;346079;28;83468;-87
2022/06/15 00:36:11;;;;;;;;;;;23.90;77.40;23.90;99445.00;;;;348475;27;91430;-87
2022/06/15 00:36:23;;;;;;;;;;;23.90;77.60;23.80;99453.00;;;;348594;27;83617;-87
2022/06/15 00:36:35;;;;;;;;;;;23.90;77.60;23.90;99444.00;;;;346598;28;91383;-87
2022/06/15 00:36:47;;;;;;;;;;;23.90;77.60;23.90;99441.00;;;;347615;27;83546;-87
2022/06/15 00:36:59;;;;;;;;;;;23.90;77.10;24.00;99450.00;;;;345525;28;92217;-87
2022/06/15 00:37:11;;;;;;;;;;;23.90;77.50;23.90;99444.00;;;;346228;28;83400;-86
2022/06/15 00:37:23;;;;;;;;;;;23.90;76.90;23.90;99446.00;;;;344165;28;89428;-86
2022/06/15 00:37:36;;;;;;;;;;;23.90;77.00;23.90;99446.00;;;;348799;27;83461;-87
2022/06/15 00:37:48;;;;;;;;;;;23.90;77.10;23.90;99442.00;;;;345615;28;92057;-87
2022/06/15 00:38:00;;;;;;;;;;;23.90;77.20;23.90;99442.00;;;;347467;28;83220;-87
2022/06/15 00:38:11;;;;;;;;;;;23.90;77.30;23.90;99448.00;;;;349920;27;89280;-86
2022/06/15 00:38:30;;;;;;;;;;;23.80;77.40;24.00;99443.00;;;;346044;28;82557;-87
2022/06/15 00:38:53;;;;;;;;;;;23.90;77.00;24.10;99440.00;;;;347039;28;91403;-86
2022/06/15 00:39:05;;;;;;;;;;;23.90;77.40;24.10;99445.00;;;;347502;28;83398;-86
2022/06/15 00:39:17;;;;;;;;;;;23.90;77.20;24.10;99444.00;;;;348424;27;90032;-86
2022/06/15 00:39:28;;;;;;;;;;;23.90;77.00;24.00;99447.00;;;;348368;27;83388;-86
2022/06/15 00:39:40;;;;;;;;;;;23.90;77.30;24.00;99442.00;;;;348185;27;89032;-87
2022/06/15 00:39:52;;;;;;;;;;;23.90;77.40;24.00;99451.00;;;;344559;28;82614;-87
2022/06/15 00:40:07;;;;;;;;;;;23.90;77.00;23.90;99446.00;;;;348135;27;91903;-87
2022/06/15 00:40:19;;;;;;;;;;;23.90;77.30;23.90;99451.00;;;;347608;28;83366;-86
2022/06/15 00:40:30;;;;;;;;;;;23.90;77.80;23.90;99450.00;;;;344170;28;91703;-87
2022/06/15 00:40:42;;;;;;;;;;;23.90;77.70;23.90;99456.00;;;;344852;28;82386;-87
2022/06/15 00:40:54;;;;;;;;;;;23.90;77.90;23.80;99441.00;;;;345677;28;89886;-87
2022/06/15 00:41:07;;;;;;;;;;;23.90;78.20;23.90;99448.00;;;;346139;28;82510;-87
2022/06/15 00:41:26;;;;;;;;;;;23.90;77.70;23.90;99443.00;;;;344196;28;92150;-86
2022/06/15 00:41:38;;;;;;;;;;;23.80;77.40;23.90;99452.00;;;;344750;28;83301;-86
2022/06/15 00:41:50;;;;;;;;;;;23.90;77.40;23.90;99444.00;;;;345758;28;89073;-87
2022/06/15 00:42:02;;;;;;;;;;;23.90;77.90;23.90;99452.00;;;;346167;28;82261;-86
2022/06/15 00:42:14;;;;;;;;;;;23.80;77.20;23.90;99453.00;;;;345319;28;91918;-86
2022/06/15 00:42:29;;;;;;;;;;;23.80;77.00;24.00;99447.00;;;;348541;27;83238;-87
2022/06/15 00:42:41;;;;;;;;;;;23.80;76.90;23.90;99448.00;;;;345769;28;90861;-87
2022/06/15 00:42:52;;;;;;;;;;;23.90;76.80;23.90;99453.00;;;;346191;28;83386;-86
2022/06/15 00:43:04;;;;;;;;;;;23.80;77.10;23.90;99452.00;;;;346942;28;91807;-87
2022/06/15 00:43:35;;;;;;;;;;;23.90;77.40;23.90;99451.00;;;;346141;28;83434;-87
2022/06/15 00:43:51;;;;;;;;;;;23.80;78.30;23.90;99450.00;;;;345597;28;92607;-87
2022/06/15 00:44:21;;;;;;;;;;;23.80;77.30;23.80;99458.00;;;;346196;28;83439;-87
2022/06/15 00:44:36;;;;;;;;;;;23.80;77.50;23.80;99447.00;;;;345720;28;89736;-87
2022/06/15 00:44:49;;;;;;;;;;;23.80;78.20;23.70;99457.00;;;;348870;27;83344;-87
2022/06/15 00:45:01;;;;;;;;;;;23.80;78.60;23.80;99456.00;;;;347155;28;90491;-86
2022/06/15 00:45:12;;;;;;;;;;;23.80;78.20;23.90;99459.00;;;;346116;28;83468;-86
2022/06/15 00:45:24;;;;;;;;;;;23.80;78.20;23.90;99459.00;;;;344098;28;89389;-86
2022/06/15 00:45:36;;;;;;;;;;;23.80;78.40;23.90;99454.00;;;;345859;28;83485;-87
2022/06/15 00:45:48;;;;;;;;;;;23.80;78.00;23.90;99457.00;;;;345358;28;91242;-86
2022/06/15 00:45:59;;;;;;;;;;;23.80;77.70;23.80;99456.00;;;;345866;28;83297;-87
2022/06/15 00:46:26;;;;;;;;;;;23.80;78.30;23.70;99460.00;;;;344291;28;90035;-86
2022/06/15 00:46:39;;;;;;;;;;;23.80;78.60;23.70;99463.00;;;;344760;28;83284;-86
2022/06/15 00:46:56;;;;;;;;;;;23.70;78.60;23.80;99456.00;;;;345695;28;88885;-86
2022/06/15 00:47:29;;;;;;;;;;;23.80;78.00;23.80;99457.00;;;;346137;28;82597;-87
2022/06/15 00:47:42;;;;;;;;;;;23.70;77.90;23.80;99465.00;;;;344387;28;88275;-87
2022/06/15 00:47:54;;;;;;;;;;;23.70;78.60;23.70;99460.00;;;;347575;28;83493;-87
2022/06/15 00:48:06;;;;;;;;;;;23.70;78.90;23.70;99458.00;;;;345650;28;91539;-87
2022/06/15 00:48:18;;;;;;;;;;;23.70;78.80;23.70;99459.00;;;;346033;28;83343;-87
2022/06/15 00:48:29;;;;;;;;;;;23.70;78.90;23.60;99453.00;;;;345452;28;89321;-87
2022/06/15 00:48:41;;;;;;;;;;;23.70;78.80;23.60;99453.00;;;;346586;27;83420;-86
2022/06/15 00:48:56;;;;;;;;;;;23.70;78.60;23.70;99459.00;;;;347043;28;90019;-87
2022/06/15 00:49:22;;;;;;;;;;;23.70;78.30;23.70;99459.00;;;;347568;28;82346;-87
2022/06/15 00:49:52;;;;;;;;;;;23.70;78.60;23.70;99461.00;;;;347391;27;89449;-87
2022/06/15 00:50:20;;;;;;;;;;;23.70;78.60;23.80;99463.00;;;;347515;27;83438;-87
2022/06/15 00:50:32;;;;;;;;;;;23.70;78.40;23.90;99466.00;;;;347098;28;89373;-87
2022/06/15 00:50:44;;;;;;;;;;;23.70;78.10;23.90;99456.00;;;;345978;28;83443;-86
2022/06/15 00:50:56;;;;;;;;;;;23.70;78.10;23.80;99462.00;;;;345421;28;89535;-87
2022/06/15 00:51:07;;;;;;;;;;;23.70;78.40;23.80;99467.00;;;;344859;28;82431;-86
2022/06/15 00:51:19;;;;;;;;;;;23.70;78.70;23.80;99467.00;;;;345680;28;89396;-87
2022/06/15 00:51:31;;;;;;;;;;;23.70;78.50;23.80;99466.00;;;;348376;27;83782;-87
2022/06/15 00:51:43;;;;;;;;;;;23.70;78.60;23.60;99462.00;;;;348355;27;89732;-86
2022/06/15 00:52:10;;;;;;;;;;;23.70;78.70;23.60;99462.00;;;;347481;28;82213;-87
2022/06/15 00:52:43;;;;;;;;;;;23.60;78.40;23.40;99461.00;;;;345665;28;90680;-86
2022/06/15 00:53:02;;;;;;;;;;;23.70;79.30;23.30;99460.00;;;;346112;28;83441;-86
2022/06/15 00:53:14;;;;;;;;;;;23.60;79.60;23.40;99462.00;;;;346885;28;92123;-87
2022/06/15 00:53:26;;;;;;;;;;;23.60;79.60;23.60;99464.00;;;;345951;28;83830;-87
2022/06/15 00:53:38;;;;;;;;;;;23.50;79.00;23.50;99467.00;;;;347041;28;92264;-87
2022/06/15 00:53:49;;;;;;;;;;;23.50;79.30;23.40;99462.00;;;;349002;27;83334;-86
2022/06/15 00:54:02;;;;;;;;;;;23.50;79.50;23.40;99463.00;;;;347078;28;89054;-87
2022/06/15 00:54:14;;;;;;;;;;;23.50;79.30;23.40;99458.00;;;;346118;28;83242;-86
2022/06/15 00:54:25;;;;;;;;;;;23.50;79.50;23.50;99466.00;;;;346946;27;91356;-86
2022/06/15 00:54:37;;;;;;;;;;;23.50;79.10;23.40;99459.00;;;;348712;27;83473;-86
2022/06/15 00:54:49;;;;;;;;;;;23.50;79.30;23.40;99466.00;;;;347106;28;89027;-87
2022/06/15 00:55:04;;;;;;;;;;;23.50;79.40;23.40;99461.00;;;;347345;28;83543;-85
2022/06/15 00:55:30;;;;;;;;;;;23.50;79.30;23.60;99459.00;;;;347066;28;92326;-87
2022/06/15 00:55:42;;;;;;;;;;;23.50;79.10;23.40;99460.00;;;;346191;28;83350;-86
2022/06/15 00:55:53;;;;;;;;;;;23.50;79.50;23.40;99460.00;;;;347090;28;89136;-86
2022/06/15 00:56:06;;;;;;;;;;;23.50;79.40;23.50;99454.00;;;;346147;28;83454;-86
2022/06/15 00:56:19;;;;;;;;;;;23.50;78.80;23.60;99454.00;;;;344284;28;92406;-87
2022/06/15 00:56:31;;;;;;;;;;;23.50;78.40;23.50;99453.00;;;;347435;28;83345;-87
2022/06/15 00:56:43;;;;;;;;;;;23.50;78.40;23.50;99454.00;;;;345150;28;90157;-86
2022/06/15 00:56:55;;;;;;;;;;;23.50;78.80;23.50;99459.00;;;;346107;28;83318;-87
2022/06/15 00:57:07;;;;;;;;;;;23.50;78.90;23.50;99463.00;;;;344303;28;90556;-87
2022/06/15 00:57:19;;;;;;;;;;;23.50;78.60;23.60;99449.00;;;;344690;28;83399;-87
2022/06/15 00:57:31;;;;;;;;;;;23.50;79.00;23.50;99454.00;;;;345980;28;92143;-87
2022/06/15 00:57:43;;;;;;;;;;;23.50;78.40;23.60;99449.00;;;;347355;28;82438;-87
2022/06/15 00:57:54;;;;;;;;;;;23.50;78.50;23.60;99451.00;;;;345738;28;88822;-87
2022/06/15 00:58:07;;;;;;;;;;;23.50;78.50;23.60;99450.00;;;;348835;27;83235;-87
2022/06/15 00:58:19;;;;;;;;;;;23.50;78.40;23.60;99447.00;;;;345602;28;91951;-87
2022/06/15 00:58:31;;;;;;;;;;;23.50;78.60;23.60;99454.00;;;;346654;28;83348;-87
2022/06/15 00:58:44;;;;;;;;;;;23.50;78.70;23.60;99449.00;;;;348322;27;92294;-86
2022/06/15 00:59:01;;;;;;;;;;;23.50;78.60;23.60;99457.00;;;;348914;27;83277;-87
2022/06/15 00:59:18;;;;;;;;;;;23.50;78.30;23.70;99446.00;;;;347085;28;91599;-87
2022/06/15 00:59:52;;;;;;;;;;;23.50;78.80;23.50;99454.00;;;;348854;27;82351;-87
2022/06/15 01:00:06;;;;;;;;;;;23.50;78.50;23.50;99457.00;;;;348330;27;91573;-87
2022/06/15 01:00:20;;;;;;;;;;;23.50;79.60;23.50;99455.00;;;;343427;28;82422;-87
2022/06/15 01:00:33;;;;;;;;;;;23.50;79.40;23.50;99446.00;;;;346416;28;89192;-87
2022/06/15 01:00:47;;;;;;;;;;;23.50;79.10;23.60;99449.00;;;;345767;28;83518;-87
2022/06/15 01:00:58;;;;;;;;;;;23.50;78.70;23.60;99454.00;;;;346491;28;89262;-87
2022/06/15 01:01:10;;;;;;;;;;;23.50;78.70;23.60;99459.00;;;;347579;28;82533;-87
2022/06/15 01:01:22;;;;;;;;;;;23.50;78.90;23.60;99447.00;;;;346886;28;91867;-87
2022/06/15 01:01:34;;;;;;;;;;;23.50;79.20;23.60;99453.00;;;;348774;27;82600;-87
2022/06/15 01:01:47;;;;;;;;;;;23.50;79.60;23.60;99457.00;;;;347062;28;89047;-87
2022/06/15 01:01:59;;;;;;;;;;;23.50;79.20;23.60;99450.00;;;;347511;28;83387;-87
2022/06/15 01:02:10;;;;;;;;;;;23.50;79.50;23.50;99457.00;;;;347056;28;89425;-87
2022/06/15 01:02:23;;;;;;;;;;;23.50;80.00;23.50;99457.00;;;;347474;28;83507;-87
2022/06/15 01:02:36;;;;;;;;;;;23.50;79.50;23.50;99452.00;;;;344246;28;90897;-87
2022/06/15 01:02:48;;;;;;;;;;;23.50;79.40;23.50;99446.00;;;;346121;28;82411;-86
2022/06/15 01:02:59;;;;;;;;;;;23.50;79.50;23.40;99463.00;;;;345620;28;91652;-87
2022/06/15 01:03:11;;;;;;;;;;;23.40;79.90;23.20;99453.00;;;;347565;28;83304;-86
2022/06/15 01:03:23;;;;;;;;;;;23.40;79.70;23.20;99447.00;;;;346921;28;92913;-87
2022/06/15 01:03:37;;;;;;;;;;;23.40;79.80;23.40;99456.00;;;;348388;27;83455;-87
2022/06/15 01:03:49;;;;;;;;;;;23.40;79.60;23.30;99455.00;;;;346972;28;89290;-87
2022/06/15 01:04:01;;;;;;;;;;;23.40;80.10;23.20;99446.00;;;;344661;28;82422;-86
2022/06/15 01:04:13;;;;;;;;;;;23.40;79.90;23.20;99454.00;;;;347052;28;92051;-87
2022/06/15 01:04:26;;;;;;;;;;;23.40;79.90;23.20;99457.00;;;;347661;28;83333;-86
2022/06/15 01:04:40;;;;;;;;;;;23.40;80.00;23.10;99461.00;;;;346831;28;89177;-86
2022/06/15 01:04:54;;;;;;;;;;;23.30;80.00;23.10;99457.00;;;;346204;28;82621;-87
2022/06/15 01:05:15;;;;;;;;;;;23.40;80.40;23.10;99459.00;;;;344334;28;89131;-87